sensor_id;sensor_type;location;lat;lon;timestamp;P1;durP1;ratioP1;P2;durP2;ratioP2
49626;SDS011;35527;54.616;39.786;2022-10-14T00:01:49;8.85;;;6.00;;
49626;SDS011;35527;54.616;39.786;2022-10-14T00:05:11;9.65;;;6.20;;
49626;SDS011;35527;54.616;39.786;2022-10-14T00:08:14;8.07;;;5.68;;
49626;SDS011;35527;54.616;39.786;2022-10-14T00:11:25;6.72;;;3.38;;
49626;SDS011;35527;54.616;39.786;2022-10-14T00:14:31;6.72;;;3.67;;
49626;SDS011;35527;54.616;39.786;2022-10-14T00:17:34;7.40;;;5.57;;
49626;SDS011;35527;54.616;39.786;2022-10-14T00:20:38;9.63;;;3.75;;
49626;SDS011;35527;54.616;39.786;2022-10-14T00:23:43;8.10;;;6.05;;
49626;SDS011;35527;54.616;39.786;2022-10-14T00:26:47;8.25;;;5.95;;
49626;SDS011;35527;54.616;39.786;2022-10-14T00:29:49;7.35;;;3.47;;
49626;SDS011;35527;54.616;39.786;2022-10-14T00:32:54;6.70;;;3.17;;
49626;SDS011;35527;54.616;39.786;2022-10-14T00:36:03;8.57;;;3.42;;
49626;SDS011;35527;54.616;39.786;2022-10-14T00:39:09;9.80;;;5.95;;
49626;SDS011;35527;54.616;39.786;2022-10-14T00:42:13;8.40;;;6.03;;
49626;SDS011;35527;54.616;39.786;2022-10-14T00:45:19;6.97;;;3.28;;
49626;SDS011;35527;54.616;39.786;2022-10-14T00:48:28;7.15;;;3.60;;
49626;SDS011;35527;54.616;39.786;2022-10-14T00:51:32;9.23;;;6.35;;
49626;SDS011;35527;54.616;39.786;2022-10-14T00:54:40;7.45;;;4.00;;
49626;SDS011;35527;54.616;39.786;2022-10-14T00:57:46;10.95;;;6.82;;
49626;SDS011;35527;54.616;39.786;2022-10-14T01:00:49;8.77;;;3.25;;
49626;SDS011;35527;54.616;39.786;2022-10-14T01:03:53;10.15;;;6.95;;
49626;SDS011;35527;54.616;39.786;2022-10-14T01:11:06;10.50;;;7.18;;
49626;SDS011;35527;54.616;39.786;2022-10-14T01:14:23;9.30;;;4.57;;
49626;SDS011;35527;54.616;39.786;2022-10-14T01:27:40;8.77;;;4.40;;
49626;SDS011;35527;54.616;39.786;2022-10-14T01:30:59;12.05;;;7.85;;
49626;SDS011;35527;54.616;39.786;2022-10-14T01:34:08;7.50;;;3.92;;
49626;SDS011;35527;54.616;39.786;2022-10-14T01:37:18;9.55;;;4.07;;
49626;SDS011;35527;54.616;39.786;2022-10-14T01:43:37;11.10;;;8.00;;
49626;SDS011;35527;54.616;39.786;2022-10-14T01:46:46;7.47;;;3.90;;
49626;SDS011;35527;54.616;39.786;2022-10-14T01:49:56;10.98;;;7.90;;
49626;SDS011;35527;54.616;39.786;2022-10-14T01:53:09;10.70;;;7.95;;
49626;SDS011;35527;54.616;39.786;2022-10-14T01:56:16;10.65;;;4.35;;
49626;SDS011;35527;54.616;39.786;2022-10-14T01:59:22;9.50;;;4.47;;
49626;SDS011;35527;54.616;39.786;2022-10-14T02:02:28;8.27;;;4.35;;
49626;SDS011;35527;54.616;39.786;2022-10-14T02:05:36;11.23;;;7.85;;
49626;SDS011;35527;54.616;39.786;2022-10-14T02:18:58;9.82;;;7.43;;
49626;SDS011;35527;54.616;39.786;2022-10-14T02:22:29;8.90;;;4.28;;
49626;SDS011;35527;54.616;39.786;2022-10-14T02:25:56;10.25;;;7.72;;
49626;SDS011;35527;54.616;39.786;2022-10-14T02:29:02;9.52;;;7.68;;
49626;SDS011;35527;54.616;39.786;2022-10-14T02:32:07;10.20;;;5.05;;
49626;SDS011;35527;54.616;39.786;2022-10-14T02:35:16;9.75;;;7.10;;
49626;SDS011;35527;54.616;39.786;2022-10-14T02:38:20;10.30;;;4.15;;
49626;SDS011;35527;54.616;39.786;2022-10-14T02:41:27;7.55;;;4.05;;
49626;SDS011;35527;54.616;39.786;2022-10-14T02:44:35;9.07;;;4.13;;
49626;SDS011;35527;54.616;39.786;2022-10-14T02:47:41;10.30;;;7.32;;
49626;SDS011;35527;54.616;39.786;2022-10-14T02:50:44;11.30;;;7.50;;
49626;SDS011;35527;54.616;39.786;2022-10-14T02:53:48;9.55;;;3.80;;
49626;SDS011;35527;54.616;39.786;2022-10-14T02:56:51;12.27;;;5.13;;
49626;SDS011;35527;54.616;39.786;2022-10-14T02:59:54;10.82;;;4.65;;
49626;SDS011;35527;54.616;39.786;2022-10-14T03:06:05;11.35;;;7.93;;
49626;SDS011;35527;54.616;39.786;2022-10-14T03:09:09;12.25;;;4.25;;
49626;SDS011;35527;54.616;39.786;2022-10-14T03:12:14;11.60;;;7.18;;
49626;SDS011;35527;54.616;39.786;2022-10-14T03:15:23;10.63;;;7.38;;
49626;SDS011;35527;54.616;39.786;2022-10-14T03:18:27;11.68;;;6.88;;
49626;SDS011;35527;54.616;39.786;2022-10-14T03:21:36;9.68;;;4.18;;
49626;SDS011;35527;54.616;39.786;2022-10-14T03:24:47;9.65;;;4.00;;
49626;SDS011;35527;54.616;39.786;2022-10-14T03:28:16;13.38;;;7.13;;
49626;SDS011;35527;54.616;39.786;2022-10-14T03:31:29;13.25;;;6.97;;
49626;SDS011;35527;54.616;39.786;2022-10-14T03:35:01;10.77;;;7.20;;
49626;SDS011;35527;54.616;39.786;2022-10-14T03:38:06;9.32;;;4.28;;
49626;SDS011;35527;54.616;39.786;2022-10-14T03:41:09;8.18;;;3.78;;
49626;SDS011;35527;54.616;39.786;2022-10-14T03:44:13;10.93;;;7.07;;
49626;SDS011;35527;54.616;39.786;2022-10-14T03:47:25;10.85;;;4.30;;
49626;SDS011;35527;54.616;39.786;2022-10-14T03:50:29;12.38;;;7.18;;
49626;SDS011;35527;54.616;39.786;2022-10-14T03:53:32;7.63;;;3.50;;
49626;SDS011;35527;54.616;39.786;2022-10-14T03:56:36;9.23;;;6.30;;
49626;SDS011;35527;54.616;39.786;2022-10-14T03:59:40;12.45;;;6.55;;
49626;SDS011;35527;54.616;39.786;2022-10-14T04:02:45;14.93;;;7.63;;
49626;SDS011;35527;54.616;39.786;2022-10-14T04:06:12;7.85;;;3.97;;
49626;SDS011;35527;54.616;39.786;2022-10-14T04:09:20;14.00;;;4.95;;
49626;SDS011;35527;54.616;39.786;2022-10-14T04:12:29;9.23;;;4.82;;
49626;SDS011;35527;54.616;39.786;2022-10-14T04:15:37;12.35;;;7.68;;
49626;SDS011;35527;54.616;39.786;2022-10-14T04:18:46;12.40;;;7.72;;
49626;SDS011;35527;54.616;39.786;2022-10-14T04:21:56;13.48;;;7.95;;
49626;SDS011;35527;54.616;39.786;2022-10-14T04:25:02;10.20;;;5.57;;
49626;SDS011;35527;54.616;39.786;2022-10-14T04:28:08;16.02;;;7.43;;
49626;SDS011;35527;54.616;39.786;2022-10-14T04:31:31;10.13;;;4.68;;
49626;SDS011;35527;54.616;39.786;2022-10-14T04:34:39;12.07;;;7.75;;
49626;SDS011;35527;54.616;39.786;2022-10-14T04:37:48;9.85;;;4.97;;
49626;SDS011;35527;54.616;39.786;2022-10-14T04:40:56;10.27;;;4.88;;
49626;SDS011;35527;54.616;39.786;2022-10-14T04:44:01;11.38;;;4.90;;
49626;SDS011;35527;54.616;39.786;2022-10-14T04:47:12;16.17;;;7.65;;
49626;SDS011;35527;54.616;39.786;2022-10-14T04:50:18;12.57;;;7.45;;
49626;SDS011;35527;54.616;39.786;2022-10-14T04:53:39;10.77;;;6.88;;
49626;SDS011;35527;54.616;39.786;2022-10-14T04:57:15;14.20;;;8.17;;
49626;SDS011;35527;54.616;39.786;2022-10-14T05:00:22;16.30;;;7.85;;
49626;SDS011;35527;54.616;39.786;2022-10-14T05:03:28;11.52;;;5.43;;
49626;SDS011;35527;54.616;39.786;2022-10-14T05:06:33;14.27;;;7.80;;
49626;SDS011;35527;54.616;39.786;2022-10-14T05:10:02;13.48;;;4.60;;
49626;SDS011;35527;54.616;39.786;2022-10-14T05:13:12;10.38;;;4.95;;
49626;SDS011;35527;54.616;39.786;2022-10-14T05:16:28;12.48;;;4.30;;
49626;SDS011;35527;54.616;39.786;2022-10-14T05:19:30;11.77;;;4.82;;
49626;SDS011;35527;54.616;39.786;2022-10-14T05:22:34;10.30;;;4.80;;
49626;SDS011;35527;54.616;39.786;2022-10-14T05:25:40;11.80;;;7.10;;
49626;SDS011;35527;54.616;39.786;2022-10-14T05:28:43;12.00;;;7.22;;
49626;SDS011;35527;54.616;39.786;2022-10-14T05:31:48;13.75;;;5.30;;
49626;SDS011;35527;54.616;39.786;2022-10-14T05:35:11;12.10;;;7.10;;
49626;SDS011;35527;54.616;39.786;2022-10-14T05:38:16;9.55;;;4.60;;
49626;SDS011;35527;54.616;39.786;2022-10-14T05:41:48;11.95;;;7.18;;
49626;SDS011;35527;54.616;39.786;2022-10-14T05:44:57;15.13;;;6.15;;
49626;SDS011;35527;54.616;39.786;2022-10-14T05:48:02;10.90;;;6.50;;
49626;SDS011;35527;54.616;39.786;2022-10-14T05:51:06;10.07;;;4.53;;
49626;SDS011;35527;54.616;39.786;2022-10-14T05:54:11;9.40;;;4.80;;
49626;SDS011;35527;54.616;39.786;2022-10-14T05:57:42;12.73;;;5.25;;
49626;SDS011;35527;54.616;39.786;2022-10-14T06:00:51;11.32;;;5.45;;
49626;SDS011;35527;54.616;39.786;2022-10-14T06:03:56;12.43;;;6.75;;
49626;SDS011;35527;54.616;39.786;2022-10-14T06:06:59;12.77;;;6.53;;
49626;SDS011;35527;54.616;39.786;2022-10-14T06:10:03;10.20;;;4.50;;
49626;SDS011;35527;54.616;39.786;2022-10-14T06:13:06;8.43;;;4.43;;
49626;SDS011;35527;54.616;39.786;2022-10-14T06:16:13;11.25;;;4.70;;
49626;SDS011;35527;54.616;39.786;2022-10-14T06:19:17;15.35;;;7.07;;
49626;SDS011;35527;54.616;39.786;2022-10-14T06:22:20;10.45;;;7.18;;
49626;SDS011;35527;54.616;39.786;2022-10-14T06:25:23;11.85;;;4.78;;
49626;SDS011;35527;54.616;39.786;2022-10-14T06:28:50;9.93;;;4.40;;
49626;SDS011;35527;54.616;39.786;2022-10-14T06:31:54;11.88;;;6.72;;
49626;SDS011;35527;54.616;39.786;2022-10-14T06:34:57;10.48;;;3.97;;
49626;SDS011;35527;54.616;39.786;2022-10-14T06:38:01;11.93;;;6.07;;
49626;SDS011;35527;54.616;39.786;2022-10-14T06:41:05;11.32;;;8.07;;
49626;SDS011;35527;54.616;39.786;2022-10-14T06:44:36;12.55;;;7.30;;
49626;SDS011;35527;54.616;39.786;2022-10-14T06:47:40;10.23;;;5.75;;
49626;SDS011;35527;54.616;39.786;2022-10-14T06:50:46;10.90;;;4.30;;
49626;SDS011;35527;54.616;39.786;2022-10-14T06:56:59;11.75;;;5.63;;
49626;SDS011;35527;54.616;39.786;2022-10-14T07:00:06;12.68;;;7.43;;
49626;SDS011;35527;54.616;39.786;2022-10-14T07:03:09;11.75;;;7.43;;
49626;SDS011;35527;54.616;39.786;2022-10-14T07:06:17;12.65;;;7.20;;
49626;SDS011;35527;54.616;39.786;2022-10-14T07:09:21;12.07;;;5.05;;
49626;SDS011;35527;54.616;39.786;2022-10-14T07:12:25;12.88;;;5.70;;
49626;SDS011;35527;54.616;39.786;2022-10-14T07:15:32;17.35;;;7.60;;
49626;SDS011;35527;54.616;39.786;2022-10-14T07:18:37;9.43;;;4.82;;
49626;SDS011;35527;54.616;39.786;2022-10-14T07:21:41;12.88;;;5.68;;
49626;SDS011;35527;54.616;39.786;2022-10-14T07:24:44;15.57;;;8.30;;
49626;SDS011;35527;54.616;39.786;2022-10-14T07:27:48;10.93;;;5.55;;
49626;SDS011;35527;54.616;39.786;2022-10-14T07:30:56;13.00;;;6.88;;
49626;SDS011;35527;54.616;39.786;2022-10-14T07:34:10;12.70;;;5.60;;
49626;SDS011;35527;54.616;39.786;2022-10-14T07:37:16;10.90;;;5.68;;
49626;SDS011;35527;54.616;39.786;2022-10-14T07:40:21;11.40;;;6.00;;
49626;SDS011;35527;54.616;39.786;2022-10-14T07:43:25;10.10;;;4.22;;
49626;SDS011;35527;54.616;39.786;2022-10-14T07:46:28;11.02;;;7.03;;
49626;SDS011;35527;54.616;39.786;2022-10-14T07:49:38;9.05;;;4.80;;
49626;SDS011;35527;54.616;39.786;2022-10-14T07:52:41;12.45;;;6.03;;
49626;SDS011;35527;54.616;39.786;2022-10-14T07:55:50;10.75;;;5.50;;
49626;SDS011;35527;54.616;39.786;2022-10-14T07:58:54;10.27;;;3.72;;
49626;SDS011;35527;54.616;39.786;2022-10-14T08:01:59;9.05;;;4.90;;
49626;SDS011;35527;54.616;39.786;2022-10-14T08:05:01;7.32;;;4.35;;
49626;SDS011;35527;54.616;39.786;2022-10-14T08:08:18;7.45;;;4.25;;
49626;SDS011;35527;54.616;39.786;2022-10-14T08:11:26;8.27;;;4.65;;
49626;SDS011;35527;54.616;39.786;2022-10-14T08:14:39;9.75;;;4.60;;
49626;SDS011;35527;54.616;39.786;2022-10-14T08:17:42;9.48;;;5.63;;
49626;SDS011;35527;54.616;39.786;2022-10-14T08:20:46;11.48;;;5.05;;
49626;SDS011;35527;54.616;39.786;2022-10-14T08:23:52;10.82;;;4.43;;
49626;SDS011;35527;54.616;39.786;2022-10-14T08:26:58;7.63;;;4.45;;
49626;SDS011;35527;54.616;39.786;2022-10-14T08:30:02;6.63;;;4.03;;
49626;SDS011;35527;54.616;39.786;2022-10-14T08:33:09;7.90;;;3.85;;
49626;SDS011;35527;54.616;39.786;2022-10-14T08:36:15;9.43;;;4.00;;
49626;SDS011;35527;54.616;39.786;2022-10-14T08:39:18;7.25;;;4.10;;
49626;SDS011;35527;54.616;39.786;2022-10-14T08:45:46;7.75;;;3.85;;
49626;SDS011;35527;54.616;39.786;2022-10-14T08:52:43;8.40;;;3.55;;
49626;SDS011;35527;54.616;39.786;2022-10-14T08:55:51;9.45;;;4.20;;
49626;SDS011;35527;54.616;39.786;2022-10-14T08:59:00;6.10;;;3.28;;
49626;SDS011;35527;54.616;39.786;2022-10-14T09:05:58;6.43;;;2.88;;
49626;SDS011;35527;54.616;39.786;2022-10-14T09:09:08;4.40;;;2.30;;
49626;SDS011;35527;54.616;39.786;2022-10-14T09:12:21;8.32;;;2.40;;
49626;SDS011;35527;54.616;39.786;2022-10-14T09:15:31;10.27;;;4.28;;
49626;SDS011;35527;54.616;39.786;2022-10-14T09:18:39;5.43;;;2.83;;
49626;SDS011;35527;54.616;39.786;2022-10-14T09:21:50;10.55;;;5.15;;
49626;SDS011;35527;54.616;39.786;2022-10-14T09:24:56;8.48;;;3.85;;
49626;SDS011;35527;54.616;39.786;2022-10-14T09:28:00;5.53;;;2.65;;
49626;SDS011;35527;54.616;39.786;2022-10-14T09:31:04;4.53;;;1.73;;
49626;SDS011;35527;54.616;39.786;2022-10-14T09:34:12;7.20;;;2.70;;
49626;SDS011;35527;54.616;39.786;2022-10-14T09:37:31;3.80;;;1.83;;
49626;SDS011;35527;54.616;39.786;2022-10-14T09:40:37;2.85;;;1.45;;
49626;SDS011;35527;54.616;39.786;2022-10-14T09:47:19;2.85;;;1.38;;
49626;SDS011;35527;54.616;39.786;2022-10-14T09:53:38;4.78;;;1.95;;
49626;SDS011;35527;54.616;39.786;2022-10-14T09:56:56;3.90;;;1.83;;
49626;SDS011;35527;54.616;39.786;2022-10-14T10:00:02;3.08;;;1.42;;
49626;SDS011;35527;54.616;39.786;2022-10-14T10:03:08;4.57;;;1.40;;
49626;SDS011;35527;54.616;39.786;2022-10-14T10:06:28;3.20;;;1.42;;
49626;SDS011;35527;54.616;39.786;2022-10-14T10:09:34;3.67;;;1.33;;
49626;SDS011;35527;54.616;39.786;2022-10-14T10:12:38;3.88;;;1.60;;
49626;SDS011;35527;54.616;39.786;2022-10-14T10:15:59;5.57;;;2.00;;
49626;SDS011;35527;54.616;39.786;2022-10-14T10:19:24;5.15;;;2.00;;
49626;SDS011;35527;54.616;39.786;2022-10-14T10:22:36;3.20;;;1.60;;
49626;SDS011;35527;54.616;39.786;2022-10-14T10:25:44;4.22;;;2.05;;
49626;SDS011;35527;54.616;39.786;2022-10-14T10:28:50;8.23;;;3.22;;
49626;SDS011;35527;54.616;39.786;2022-10-14T10:38:51;9.85;;;1.88;;
49626;SDS011;35527;54.616;39.786;2022-10-14T10:48:53;6.97;;;3.20;;
49626;SDS011;35527;54.616;39.786;2022-10-14T10:55:44;4.22;;;1.35;;
49626;SDS011;35527;54.616;39.786;2022-10-14T11:09:04;3.85;;;1.80;;
49626;SDS011;35527;54.616;39.786;2022-10-14T11:25:57;4.20;;;1.50;;
49626;SDS011;35527;54.616;39.786;2022-10-14T11:32:51;5.80;;;2.15;;
49626;SDS011;35527;54.616;39.786;2022-10-14T11:39:51;4.45;;;1.30;;
49626;SDS011;35527;54.616;39.786;2022-10-14T11:47:19;5.05;;;1.45;;
49626;SDS011;35527;54.616;39.786;2022-10-14T11:50:35;3.70;;;1.40;;
49626;SDS011;35527;54.616;39.786;2022-10-14T11:53:47;3.53;;;1.40;;
49626;SDS011;35527;54.616;39.786;2022-10-14T12:00:15;3.30;;;1.17;;
49626;SDS011;35527;54.616;39.786;2022-10-14T12:07:03;4.45;;;1.52;;
49626;SDS011;35527;54.616;39.786;2022-10-14T12:10:12;4.95;;;1.50;;
49626;SDS011;35527;54.616;39.786;2022-10-14T12:13:26;9.63;;;1.92;;
49626;SDS011;35527;54.616;39.786;2022-10-14T12:16:42;5.53;;;1.63;;
49626;SDS011;35527;54.616;39.786;2022-10-14T12:19:50;5.03;;;1.60;;
49626;SDS011;35527;54.616;39.786;2022-10-14T12:22:54;3.65;;;1.60;;
49626;SDS011;35527;54.616;39.786;2022-10-14T12:26:05;4.75;;;2.20;;
49626;SDS011;35527;54.616;39.786;2022-10-14T12:29:24;5.15;;;1.70;;
49626;SDS011;35527;54.616;39.786;2022-10-14T12:32:31;5.65;;;1.92;;
49626;SDS011;35527;54.616;39.786;2022-10-14T12:42:20;6.07;;;2.13;;
49626;SDS011;35527;54.616;39.786;2022-10-14T12:45:25;5.15;;;2.03;;
49626;SDS011;35527;54.616;39.786;2022-10-14T12:48:34;7.15;;;4.18;;
49626;SDS011;35527;54.616;39.786;2022-10-14T12:51:50;4.93;;;2.40;;
49626;SDS011;35527;54.616;39.786;2022-10-14T12:55:00;6.97;;;2.60;;
49626;SDS011;35527;54.616;39.786;2022-10-14T12:58:11;5.03;;;2.10;;
49626;SDS011;35527;54.616;39.786;2022-10-14T13:01:26;5.15;;;1.98;;
49626;SDS011;35527;54.616;39.786;2022-10-14T13:04:32;4.40;;;1.70;;
49626;SDS011;35527;54.616;39.786;2022-10-14T13:07:43;4.45;;;1.70;;
49626;SDS011;35527;54.616;39.786;2022-10-14T13:14:00;3.13;;;1.50;;
49626;SDS011;35527;54.616;39.786;2022-10-14T13:20:50;7.00;;;3.97;;
49626;SDS011;35527;54.616;39.786;2022-10-14T13:23:57;8.25;;;2.88;;
49626;SDS011;35527;54.616;39.786;2022-10-14T13:33:45;8.20;;;2.10;;
49626;SDS011;35527;54.616;39.786;2022-10-14T13:37:03;4.32;;;1.50;;
49626;SDS011;35527;54.616;39.786;2022-10-14T13:40:29;5.28;;;1.50;;
49626;SDS011;35527;54.616;39.786;2022-10-14T13:43:39;4.57;;;1.67;;
49626;SDS011;35527;54.616;39.786;2022-10-14T13:46:45;4.95;;;2.15;;
49626;SDS011;35527;54.616;39.786;2022-10-14T13:49:50;5.75;;;2.40;;
49626;SDS011;35527;54.616;39.786;2022-10-14T13:53:01;10.60;;;3.25;;
49626;SDS011;35527;54.616;39.786;2022-10-14T13:56:14;8.80;;;3.13;;
49626;SDS011;35527;54.616;39.786;2022-10-14T13:59:27;5.35;;;2.40;;
49626;SDS011;35527;54.616;39.786;2022-10-14T14:02:30;5.82;;;2.40;;
49626;SDS011;35527;54.616;39.786;2022-10-14T14:05:37;5.28;;;1.70;;
49626;SDS011;35527;54.616;39.786;2022-10-14T14:08:45;8.48;;;2.30;;
49626;SDS011;35527;54.616;39.786;2022-10-14T14:11:53;6.50;;;2.15;;
49626;SDS011;35527;54.616;39.786;2022-10-14T14:14:59;6.22;;;2.35;;
49626;SDS011;35527;54.616;39.786;2022-10-14T14:18:04;9.27;;;2.15;;
49626;SDS011;35527;54.616;39.786;2022-10-14T14:21:29;6.80;;;2.30;;
49626;SDS011;35527;54.616;39.786;2022-10-14T14:24:35;6.05;;;2.47;;
49626;SDS011;35527;54.616;39.786;2022-10-14T14:28:21;8.68;;;2.65;;
49626;SDS011;35527;54.616;39.786;2022-10-14T14:31:15;8.77;;;2.60;;
49626;SDS011;35527;54.616;39.786;2022-10-14T14:34:21;9.10;;;2.65;;
49626;SDS011;35527;54.616;39.786;2022-10-14T14:37:28;9.13;;;2.40;;
49626;SDS011;35527;54.616;39.786;2022-10-14T14:44:26;9.13;;;2.47;;
49626;SDS011;35527;54.616;39.786;2022-10-14T14:47:31;11.07;;;3.38;;
49626;SDS011;35527;54.616;39.786;2022-10-14T14:50:35;7.57;;;3.25;;
49626;SDS011;35527;54.616;39.786;2022-10-14T14:53:53;7.90;;;3.20;;
49626;SDS011;35527;54.616;39.786;2022-10-14T15:00:04;11.13;;;5.32;;
49626;SDS011;35527;54.616;39.786;2022-10-14T15:03:11;11.95;;;6.95;;
49626;SDS011;35527;54.616;39.786;2022-10-14T15:06:15;17.90;;;8.82;;
49626;SDS011;35527;54.616;39.786;2022-10-14T15:09:23;12.05;;;5.82;;
49626;SDS011;35527;54.616;39.786;2022-10-14T15:12:36;15.63;;;7.32;;
49626;SDS011;35527;54.616;39.786;2022-10-14T15:15:50;22.95;;;11.50;;
49626;SDS011;35527;54.616;39.786;2022-10-14T15:22:23;24.27;;;10.15;;
49626;SDS011;35527;54.616;39.786;2022-10-14T15:25:55;15.13;;;5.35;;
49626;SDS011;35527;54.616;39.786;2022-10-14T15:32:13;17.23;;;6.00;;
49626;SDS011;35527;54.616;39.786;2022-10-14T15:35:22;11.13;;;4.30;;
49626;SDS011;35527;54.616;39.786;2022-10-14T15:38:27;9.35;;;4.38;;
49626;SDS011;35527;54.616;39.786;2022-10-14T15:41:38;9.13;;;5.03;;
49626;SDS011;35527;54.616;39.786;2022-10-14T15:44:41;12.30;;;2.97;;
49626;SDS011;35527;54.616;39.786;2022-10-14T15:47:51;12.65;;;4.97;;
49626;SDS011;35527;54.616;39.786;2022-10-14T15:51:03;9.25;;;4.65;;
49626;SDS011;35527;54.616;39.786;2022-10-14T15:54:10;11.30;;;5.85;;
49626;SDS011;35527;54.616;39.786;2022-10-14T15:57:13;10.63;;;4.22;;
49626;SDS011;35527;54.616;39.786;2022-10-14T16:00:22;5.05;;;2.50;;
49626;SDS011;35527;54.616;39.786;2022-10-14T16:03:28;11.02;;;3.97;;
49626;SDS011;35527;54.616;39.786;2022-10-14T16:06:37;9.52;;;3.05;;
49626;SDS011;35527;54.616;39.786;2022-10-14T16:09:40;16.48;;;6.10;;
49626;SDS011;35527;54.616;39.786;2022-10-14T16:15:53;14.23;;;5.50;;
49626;SDS011;35527;54.616;39.786;2022-10-14T16:19:01;15.20;;;6.95;;
49626;SDS011;35527;54.616;39.786;2022-10-14T16:22:07;15.32;;;4.55;;
49626;SDS011;35527;54.616;39.786;2022-10-14T16:25:15;13.38;;;5.47;;
49626;SDS011;35527;54.616;39.786;2022-10-14T16:28:25;17.45;;;4.80;;
49626;SDS011;35527;54.616;39.786;2022-10-14T16:31:28;23.85;;;10.60;;
49626;SDS011;35527;54.616;39.786;2022-10-14T16:34:31;13.02;;;3.88;;
49626;SDS011;35527;54.616;39.786;2022-10-14T16:37:33;14.82;;;4.22;;
49626;SDS011;35527;54.616;39.786;2022-10-14T16:40:36;19.48;;;7.60;;
49626;SDS011;35527;54.616;39.786;2022-10-14T16:43:43;14.38;;;6.38;;
49626;SDS011;35527;54.616;39.786;2022-10-14T16:46:47;12.70;;;5.05;;
49626;SDS011;35527;54.616;39.786;2022-10-14T16:50:08;12.88;;;5.75;;
49626;SDS011;35527;54.616;39.786;2022-10-14T16:53:15;13.25;;;4.93;;
49626;SDS011;35527;54.616;39.786;2022-10-14T16:56:37;8.13;;;2.90;;
49626;SDS011;35527;54.616;39.786;2022-10-14T16:59:57;14.18;;;6.43;;
49626;SDS011;35527;54.616;39.786;2022-10-14T17:03:02;13.30;;;4.53;;
49626;SDS011;35527;54.616;39.786;2022-10-14T17:06:07;6.85;;;3.20;;
49626;SDS011;35527;54.616;39.786;2022-10-14T17:09:12;6.75;;;2.70;;
49626;SDS011;35527;54.616;39.786;2022-10-14T17:12:16;10.00;;;3.00;;
49626;SDS011;35527;54.616;39.786;2022-10-14T17:15:20;10.40;;;4.60;;
49626;SDS011;35527;54.616;39.786;2022-10-14T17:18:26;11.88;;;4.68;;
49626;SDS011;35527;54.616;39.786;2022-10-14T17:21:38;51.75;;;19.77;;
49626;SDS011;35527;54.616;39.786;2022-10-14T17:24:41;38.85;;;15.02;;
49626;SDS011;35527;54.616;39.786;2022-10-14T17:27:44;35.08;;;9.60;;
49626;SDS011;35527;54.616;39.786;2022-10-14T17:31:17;30.48;;;7.53;;
49626;SDS011;35527;54.616;39.786;2022-10-14T17:34:22;29.95;;;12.77;;
49626;SDS011;35527;54.616;39.786;2022-10-14T17:37:25;25.80;;;9.90;;
49626;SDS011;35527;54.616;39.786;2022-10-14T17:40:32;24.58;;;10.35;;
49626;SDS011;35527;54.616;39.786;2022-10-14T17:43:38;13.50;;;4.90;;
49626;SDS011;35527;54.616;39.786;2022-10-14T17:46:44;27.25;;;11.45;;
49626;SDS011;35527;54.616;39.786;2022-10-14T17:49:48;16.73;;;5.57;;
49626;SDS011;35527;54.616;39.786;2022-10-14T17:52:51;30.85;;;11.82;;
49626;SDS011;35527;54.616;39.786;2022-10-14T17:56:01;36.97;;;14.35;;
49626;SDS011;35527;54.616;39.786;2022-10-14T17:59:16;25.75;;;8.13;;
49626;SDS011;35527;54.616;39.786;2022-10-14T18:02:19;25.58;;;10.15;;
49626;SDS011;35527;54.616;39.786;2022-10-14T18:05:26;33.53;;;14.50;;
49626;SDS011;35527;54.616;39.786;2022-10-14T18:08:33;20.85;;;6.32;;
49626;SDS011;35527;54.616;39.786;2022-10-14T18:11:37;24.67;;;6.35;;
49626;SDS011;35527;54.616;39.786;2022-10-14T18:15:03;16.60;;;5.07;;
49626;SDS011;35527;54.616;39.786;2022-10-14T18:18:06;21.35;;;5.53;;
49626;SDS011;35527;54.616;39.786;2022-10-14T18:21:35;18.75;;;7.90;;
49626;SDS011;35527;54.616;39.786;2022-10-14T18:24:41;19.10;;;6.10;;
49626;SDS011;35527;54.616;39.786;2022-10-14T18:27:48;25.15;;;9.70;;
49626;SDS011;35527;54.616;39.786;2022-10-14T18:30:52;24.50;;;7.50;;
49626;SDS011;35527;54.616;39.786;2022-10-14T18:33:59;15.75;;;5.32;;
49626;SDS011;35527;54.616;39.786;2022-10-14T18:37:02;31.73;;;14.23;;
49626;SDS011;35527;54.616;39.786;2022-10-14T18:40:06;23.88;;;6.47;;
49626;SDS011;35527;54.616;39.786;2022-10-14T18:43:09;14.57;;;5.13;;
49626;SDS011;35527;54.616;39.786;2022-10-14T18:46:14;13.32;;;4.25;;
49626;SDS011;35527;54.616;39.786;2022-10-14T18:49:18;13.13;;;6.03;;
49626;SDS011;35527;54.616;39.786;2022-10-14T18:52:21;10.70;;;3.95;;
49626;SDS011;35527;54.616;39.786;2022-10-14T18:55:24;8.48;;;2.97;;
49626;SDS011;35527;54.616;39.786;2022-10-14T18:58:28;8.95;;;4.45;;
49626;SDS011;35527;54.616;39.786;2022-10-14T19:01:31;12.07;;;2.80;;
49626;SDS011;35527;54.616;39.786;2022-10-14T19:04:36;8.65;;;2.35;;
49626;SDS011;35527;54.616;39.786;2022-10-14T19:07:40;8.55;;;3.30;;
49626;SDS011;35527;54.616;39.786;2022-10-14T19:10:46;13.05;;;3.03;;
49626;SDS011;35527;54.616;39.786;2022-10-14T19:13:53;7.63;;;3.15;;
49626;SDS011;35527;54.616;39.786;2022-10-14T19:16:58;11.07;;;2.83;;
49626;SDS011;35527;54.616;39.786;2022-10-14T19:20:01;7.88;;;4.68;;
49626;SDS011;35527;54.616;39.786;2022-10-14T19:23:07;7.00;;;2.92;;
49626;SDS011;35527;54.616;39.786;2022-10-14T19:26:16;8.65;;;2.92;;
49626;SDS011;35527;54.616;39.786;2022-10-14T19:29:21;9.18;;;4.97;;
49626;SDS011;35527;54.616;39.786;2022-10-14T19:32:26;6.72;;;2.95;;
49626;SDS011;35527;54.616;39.786;2022-10-14T19:35:31;6.47;;;3.22;;
49626;SDS011;35527;54.616;39.786;2022-10-14T19:38:38;10.00;;;3.03;;
49626;SDS011;35527;54.616;39.786;2022-10-14T19:41:41;5.18;;;2.50;;
49626;SDS011;35527;54.616;39.786;2022-10-14T19:44:52;9.55;;;4.72;;
49626;SDS011;35527;54.616;39.786;2022-10-14T19:47:59;6.07;;;2.97;;
49626;SDS011;35527;54.616;39.786;2022-10-14T19:51:06;5.68;;;2.60;;
49626;SDS011;35527;54.616;39.786;2022-10-14T19:54:11;7.05;;;4.00;;
49626;SDS011;35527;54.616;39.786;2022-10-14T19:57:16;8.25;;;3.10;;
49626;SDS011;35527;54.616;39.786;2022-10-14T20:00:22;8.32;;;4.15;;
49626;SDS011;35527;54.616;39.786;2022-10-14T20:03:25;5.75;;;2.88;;
49626;SDS011;35527;54.616;39.786;2022-10-14T20:06:32;9.93;;;2.50;;
49626;SDS011;35527;54.616;39.786;2022-10-14T20:09:38;7.32;;;4.32;;
49626;SDS011;35527;54.616;39.786;2022-10-14T20:12:43;7.03;;;2.97;;
49626;SDS011;35527;54.616;39.786;2022-10-14T20:15:53;6.18;;;2.80;;
49626;SDS011;35527;54.616;39.786;2022-10-14T20:18:56;9.88;;;2.80;;
49626;SDS011;35527;54.616;39.786;2022-10-14T20:21:59;6.30;;;2.75;;
49626;SDS011;35527;54.616;39.786;2022-10-14T20:25:05;8.25;;;3.13;;
49626;SDS011;35527;54.616;39.786;2022-10-14T20:28:08;7.90;;;4.15;;
49626;SDS011;35527;54.616;39.786;2022-10-14T20:31:12;7.55;;;2.72;;
49626;SDS011;35527;54.616;39.786;2022-10-14T20:34:15;6.45;;;2.85;;
49626;SDS011;35527;54.616;39.786;2022-10-14T20:37:21;6.47;;;2.72;;
49626;SDS011;35527;54.616;39.786;2022-10-14T20:40:27;6.10;;;2.65;;
49626;SDS011;35527;54.616;39.786;2022-10-14T20:43:31;8.25;;;4.03;;
49626;SDS011;35527;54.616;39.786;2022-10-14T20:49:55;9.45;;;4.10;;
49626;SDS011;35527;54.616;39.786;2022-10-14T20:52:58;5.22;;;2.63;;
49626;SDS011;35527;54.616;39.786;2022-10-14T20:56:09;7.07;;;3.20;;
49626;SDS011;35527;54.616;39.786;2022-10-14T20:59:14;6.97;;;3.22;;
49626;SDS011;35527;54.616;39.786;2022-10-14T21:05:24;8.82;;;3.97;;